createdAt,value
2022-12-08T00:01:10.877Z,5.13
2022-12-08T00:03:39.215Z,4.93
2022-12-08T00:06:26.074Z,5.53
2022-12-08T00:09:11.507Z,5.20
2022-12-08T00:11:39.887Z,4.80
2022-12-08T00:14:07.963Z,4.77
2022-12-08T00:16:37.455Z,5.20
2022-12-08T00:19:05.527Z,5.50
2022-12-08T00:21:33.574Z,5.10
2022-12-08T00:24:01.622Z,5.47
2022-12-08T00:26:35.481Z,5.63
2022-12-08T00:29:03.674Z,4.97
2022-12-08T00:31:31.713Z,5.23
2022-12-08T00:34:01.214Z,5.50
2022-12-08T00:36:29.255Z,5.10
2022-12-08T00:38:57.358Z,5.87
2022-12-08T00:41:40.792Z,5.50
2022-12-08T00:44:08.835Z,5.37
2022-12-08T00:46:36.950Z,5.90
2022-12-08T00:49:06.540Z,5.77
2022-12-08T00:51:34.682Z,5.70
2022-12-08T00:54:02.751Z,5.87
2022-12-08T00:56:30.849Z,6.10
2022-12-08T00:58:59.444Z,6.17
2022-12-08T01:01:27.582Z,6.03
2022-12-08T01:03:55.691Z,6.17
2022-12-08T01:06:25.140Z,6.20
2022-12-08T01:08:53.233Z,5.97
2022-12-08T01:11:21.349Z,6.50
2022-12-08T01:13:49.356Z,6.43
2022-12-08T01:16:21.058Z,6.80
2022-12-08T01:18:49.086Z,6.70
2022-12-08T01:21:17.197Z,6.57
2022-12-08T01:23:46.592Z,6.23
2022-12-08T01:26:15.634Z,6.50
2022-12-08T01:28:43.934Z,6.07
2022-12-08T01:31:20.536Z,6.93
2022-12-08T01:33:48.846Z,6.27
2022-12-08T01:36:21.304Z,6.63
2022-12-08T01:38:50.888Z,7.07
2022-12-08T01:41:20.151Z,6.90
2022-12-08T01:44:25.943Z,6.73
2022-12-08T01:46:54.003Z,6.50
2022-12-08T01:49:23.407Z,5.90
2022-12-08T01:51:53.908Z,6.80
2022-12-08T01:54:23.538Z,6.97
2022-12-08T01:56:53.029Z,7.17
2022-12-08T01:59:21.066Z,6.57
2022-12-08T02:01:49.208Z,6.10
2022-12-08T02:04:17.335Z,6.17
2022-12-08T02:06:45.900Z,6.10
2022-12-08T02:09:14.024Z,6.70
2022-12-08T02:11:43.424Z,6.57
2022-12-08T02:14:11.628Z,6.43
2022-12-08T02:16:42.161Z,6.80
2022-12-08T02:19:31.404Z,7.00
2022-12-08T02:22:00.985Z,6.50
2022-12-08T02:24:31.580Z,7.00
2022-12-08T02:27:34.543Z,6.57
2022-12-08T02:30:24.180Z,6.20
2022-12-08T02:33:10.521Z,6.47
2022-12-08T02:35:41.129Z,7.10
2022-12-08T02:38:10.988Z,7.80
2022-12-08T02:40:43.549Z,6.60
2022-12-08T02:43:14.361Z,7.00
2022-12-08T02:45:44.788Z,7.20
2022-12-08T02:48:12.824Z,7.50
2022-12-08T02:50:42.247Z,6.97
2022-12-08T02:55:41.669Z,7.30
2022-12-08T02:58:24.394Z,6.87
2022-12-08T03:01:00.023Z,7.10
2022-12-08T03:03:33.030Z,7.20
2022-12-08T03:06:06.866Z,7.80
2022-12-08T03:08:37.288Z,8.03
2022-12-08T03:11:06.246Z,7.27
2022-12-08T03:13:35.906Z,7.07
2022-12-08T03:16:04.170Z,7.97
2022-12-08T03:18:32.875Z,7.80
2022-12-08T03:21:00.961Z,7.27
2022-12-08T03:23:30.454Z,7.23
2022-12-08T03:26:05.522Z,7.80
2022-12-08T03:28:33.568Z,7.90
2022-12-08T03:31:02.513Z,8.40
2022-12-08T03:33:31.663Z,8.23
2022-12-08T03:36:00.247Z,8.00
2022-12-08T03:38:28.309Z,8.50
2022-12-08T03:41:15.299Z,7.70
2022-12-08T03:43:43.389Z,8.40
2022-12-08T03:46:11.500Z,8.50
2022-12-08T03:48:39.576Z,9.23
2022-12-08T03:51:07.613Z,9.23
2022-12-08T03:53:35.686Z,8.70
2022-12-08T03:56:06.680Z,8.40
2022-12-08T03:58:40.521Z,8.80
2022-12-08T04:01:08.677Z,9.00
2022-12-08T04:03:36.861Z,8.50
2022-12-08T04:06:05.026Z,8.97
2022-12-08T04:08:33.123Z,9.00
2022-12-08T04:11:01.254Z,9.53
2022-12-08T04:13:30.686Z,9.10
2022-12-08T04:15:58.818Z,9.10
2022-12-08T04:18:27.127Z,9.47
2022-12-08T04:20:55.211Z,9.87
2022-12-08T04:23:23.250Z,9.60
2022-12-08T04:25:52.375Z,9.40
2022-12-08T04:28:20.414Z,8.90
2022-12-08T04:30:50.620Z,9.40
2022-12-08T04:33:18.743Z,9.80
2022-12-08T04:35:46.763Z,9.57
2022-12-08T04:38:14.814Z,9.93
2022-12-08T04:40:42.844Z,9.10
2022-12-08T04:43:10.861Z,9.10
2022-12-08T04:45:40.567Z,10.13
2022-12-08T04:48:10.140Z,9.43
2022-12-08T04:50:38.221Z,9.20
2022-12-08T04:53:06.299Z,9.13
2022-12-08T04:55:34.476Z,9.43
2022-12-08T04:58:02.548Z,9.50
2022-12-08T05:00:30.629Z,9.93
2022-12-08T05:02:58.734Z,9.27
2022-12-08T05:05:28.185Z,9.83
2022-12-08T05:07:56.324Z,9.17
2022-12-08T05:10:24.588Z,9.50
2022-12-08T05:12:52.668Z,9.10
2022-12-08T05:15:20.782Z,10.00
2022-12-08T05:17:48.898Z,9.70
2022-12-08T05:20:17.271Z,8.80
2022-12-08T05:22:46.704Z,8.60
2022-12-08T05:25:14.963Z,10.70
2022-12-08T05:27:43.176Z,9.50
2022-12-08T05:30:11.621Z,9.33
2022-12-08T05:32:39.705Z,9.50
2022-12-08T05:35:08.582Z,8.67
2022-12-08T05:37:36.774Z,9.43
2022-12-08T05:40:07.659Z,10.33
2022-12-08T05:42:36.075Z,9.50
2022-12-08T05:45:04.448Z,8.23
2022-12-08T05:47:35.960Z,10.50
2022-12-08T05:50:05.117Z,8.70
2022-12-08T05:52:33.504Z,9.67
2022-12-08T05:55:01.776Z,8.83
2022-12-08T05:57:31.243Z,8.90
2022-12-08T05:59:59.724Z,8.90
2022-12-08T06:02:27.870Z,8.13
2022-12-08T06:04:56.039Z,8.27
2022-12-08T06:07:24.124Z,9.10
2022-12-08T06:09:52.187Z,8.90
2022-12-08T06:12:21.266Z,9.17
2022-12-08T06:14:50.882Z,8.40
2022-12-08T06:17:19.036Z,8.30
2022-12-08T06:19:47.356Z,7.97
2022-12-08T06:22:15.471Z,8.70
2022-12-08T06:24:43.600Z,8.63
2022-12-08T06:27:11.657Z,8.20
2022-12-08T06:29:39.767Z,8.23
2022-12-08T06:32:09.435Z,7.90
2022-12-08T06:34:37.542Z,8.20
2022-12-08T06:37:05.663Z,8.23
2022-12-08T06:39:33.759Z,7.87
2022-12-08T06:45:01.711Z,8.07
2022-12-08T06:47:31.139Z,8.50
2022-12-08T06:49:59.271Z,8.37
2022-12-08T06:52:27.367Z,7.80
2022-12-08T06:54:55.409Z,8.20
2022-12-08T06:57:24.203Z,7.67
2022-12-08T06:59:52.278Z,7.97
2022-12-08T07:02:20.423Z,8.67
2022-12-08T07:04:49.919Z,7.70
2022-12-08T07:07:18.004Z,7.40
2022-12-08T07:09:46.080Z,7.00
2022-12-08T07:12:14.158Z,7.50
2022-12-08T07:14:45.241Z,7.27
2022-12-08T07:17:13.740Z,7.10
2022-12-08T07:19:41.860Z,7.57
2022-12-08T07:22:11.243Z,7.40
2022-12-08T07:24:39.263Z,7.90
2022-12-08T07:27:07.374Z,8.40
2022-12-08T07:29:35.442Z,7.60
2022-12-08T07:32:04.023Z,7.07
2022-12-08T07:34:32.040Z,7.97
2022-12-08T07:37:00.088Z,7.83
2022-12-08T07:39:29.524Z,7.60
2022-12-08T07:41:57.599Z,6.80
2022-12-08T07:44:25.813Z,7.77
2022-12-08T07:46:53.867Z,7.43
2022-12-08T07:49:22.247Z,6.83
2022-12-08T07:51:50.355Z,7.13
2022-12-08T07:54:18.476Z,7.57
2022-12-08T07:56:47.913Z,6.40
2022-12-08T07:59:15.989Z,7.83
2022-12-08T08:01:45.513Z,7.00
2022-12-08T08:04:13.818Z,7.17
2022-12-08T08:06:41.964Z,6.90
2022-12-08T08:09:10.499Z,7.63
2022-12-08T08:11:38.676Z,6.63
2022-12-08T08:14:08.110Z,6.33
2022-12-08T08:16:38.567Z,6.37
2022-12-08T08:19:06.883Z,7.20
2022-12-08T08:21:45.437Z,6.50
2022-12-08T08:24:14.258Z,6.40
2022-12-08T08:26:42.296Z,7.30
2022-12-08T08:29:11.756Z,6.27
2022-12-08T08:31:39.912Z,6.80
2022-12-08T08:34:09.128Z,5.70
2022-12-08T08:36:43.154Z,6.17
2022-12-08T08:39:11.274Z,7.07
2022-12-08T08:41:39.512Z,6.30
2022-12-08T08:44:07.569Z,6.53
2022-12-08T08:46:37.100Z,5.73
2022-12-08T08:49:05.170Z,6.30
2022-12-08T08:51:33.288Z,6.47
2022-12-08T08:54:04.186Z,6.47
2022-12-08T08:56:32.301Z,6.23
2022-12-08T08:59:00.360Z,6.53
2022-12-08T09:01:29.005Z,5.80
2022-12-08T09:03:58.683Z,6.30
2022-12-08T09:06:28.182Z,5.43
2022-12-08T09:08:56.386Z,5.53
2022-12-08T09:11:24.455Z,5.30
2022-12-08T09:13:53.228Z,5.80
2022-12-08T09:16:21.614Z,4.93
2022-12-08T09:18:49.814Z,5.83
2022-12-08T09:21:22.716Z,5.87
2022-12-08T09:23:51.071Z,5.40
2022-12-08T09:26:23.307Z,5.30
2022-12-08T09:28:51.367Z,5.77
2022-12-08T09:31:19.661Z,5.33
2022-12-08T09:33:47.826Z,5.03
2022-12-08T09:36:16.087Z,5.40
2022-12-08T09:38:46.654Z,5.13
2022-12-08T09:41:17.430Z,5.90
2022-12-08T09:43:56.531Z,5.00
2022-12-08T09:46:24.705Z,5.10
2022-12-08T09:48:55.772Z,4.67
2022-12-08T09:51:25.092Z,5.40
2022-12-08T09:53:56.422Z,4.80
2022-12-08T09:56:25.238Z,5.13
2022-12-08T09:59:01.598Z,4.70
2022-12-08T10:01:30.791Z,5.20
2022-12-08T10:03:59.105Z,4.90
2022-12-08T10:06:30.384Z,4.37
2022-12-08T10:09:04.603Z,4.50
2022-12-08T10:11:36.905Z,5.00
2022-12-08T10:14:11.415Z,4.33
2022-12-08T10:16:41.502Z,4.80
2022-12-08T10:19:14.643Z,4.90
2022-12-08T10:21:43.228Z,4.37
2022-12-08T10:24:17.739Z,4.50
2022-12-08T10:26:46.013Z,4.63
2022-12-08T10:29:14.379Z,4.10
2022-12-08T10:31:42.898Z,5.23
2022-12-08T10:34:20.643Z,5.00
2022-12-08T10:36:50.747Z,4.63
2022-12-08T10:39:36.984Z,5.07
2022-12-08T10:42:20.790Z,5.67
2022-12-08T10:44:59.181Z,4.60
2022-12-08T10:47:30.759Z,4.90
2022-12-08T10:50:10.718Z,4.27
2022-12-08T10:52:42.026Z,4.77
2022-12-08T10:55:21.099Z,4.90
2022-12-08T10:57:50.055Z,4.60
2022-12-08T11:00:19.642Z,5.30
2022-12-08T11:03:00.868Z,5.23
2022-12-08T11:05:32.212Z,4.80
2022-12-08T11:08:00.413Z,5.17
2022-12-08T11:10:37.334Z,4.77
2022-12-08T11:13:06.438Z,5.20
2022-12-08T11:15:37.294Z,4.60
2022-12-08T11:18:10.458Z,5.00
2022-12-08T11:20:47.615Z,5.10
2022-12-08T11:23:22.709Z,5.70
2022-12-08T11:25:52.147Z,5.13
2022-12-08T11:28:23.514Z,5.53
2022-12-08T11:30:56.030Z,5.93
2022-12-08T11:33:25.009Z,5.67
2022-12-08T11:35:54.219Z,5.47
2022-12-08T11:38:23.885Z,5.30
2022-12-08T11:40:53.907Z,4.93
2022-12-08T11:43:23.827Z,5.40
2022-12-08T11:45:53.360Z,5.43
2022-12-08T11:48:24.621Z,5.60
2022-12-08T11:50:53.832Z,4.80
2022-12-08T11:53:26.029Z,5.60
2022-12-08T11:55:58.374Z,5.13
2022-12-08T11:58:29.324Z,5.13
2022-12-08T12:00:58.156Z,5.20
2022-12-08T12:03:29.945Z,4.93
2022-12-08T12:06:38.140Z,5.10
2022-12-08T12:09:08.667Z,5.40
2022-12-08T12:11:59.361Z,6.03
2022-12-08T12:14:35.783Z,4.93
2022-12-08T12:17:04.652Z,4.73
2022-12-08T12:19:34.722Z,5.20
2022-12-08T12:22:10.130Z,4.77
2022-12-08T12:24:38.849Z,4.90
2022-12-08T12:27:09.356Z,5.07
2022-12-08T12:29:38.313Z,5.50
2022-12-08T12:32:07.640Z,4.93
2022-12-08T12:34:36.708Z,4.80
2022-12-08T12:37:06.697Z,5.57
2022-12-08T12:39:45.954Z,4.90
2022-12-08T12:42:36.565Z,5.20
2022-12-08T12:45:20.393Z,5.03
2022-12-08T12:47:54.310Z,5.53
2022-12-08T12:50:46.085Z,5.30
2022-12-08T12:53:48.675Z,4.63
2022-12-08T12:56:50.171Z,4.80
2022-12-08T12:59:51.602Z,5.70
2022-12-08T13:02:23.421Z,5.30
2022-12-08T13:04:59.611Z,6.20
2022-12-08T13:07:29.005Z,4.83
2022-12-08T13:09:58.918Z,5.17
2022-12-08T13:12:28.237Z,5.40
2022-12-08T13:15:07.608Z,4.63
2022-12-08T13:17:37.503Z,4.60
2022-12-08T13:20:07.526Z,5.13
2022-12-08T13:22:59.571Z,5.10
2022-12-08T13:25:53.707Z,4.67
2022-12-08T13:28:24.025Z,4.90
2022-12-08T13:30:54.271Z,5.00
2022-12-08T13:33:30.567Z,5.70
2022-12-08T13:36:07.202Z,4.47
2022-12-08T13:38:36.541Z,5.00
2022-12-08T13:41:07.303Z,5.30
2022-12-08T13:43:50.951Z,5.00
2022-12-08T13:53:49.446Z,4.80
2022-12-08T13:56:43.369Z,5.10
2022-12-08T13:57:55.495Z,5.20
2022-12-08T14:00:24.350Z,5.00
2022-12-08T14:02:56.478Z,5.70
2022-12-08T14:05:41.108Z,5.00
2022-12-08T14:08:50.928Z,4.87
2022-12-08T14:11:11.405Z,5.17
2022-12-08T14:13:39.509Z,5.17
2022-12-08T14:16:12.578Z,5.03
2022-12-08T14:18:43.313Z,5.07
2022-12-08T14:21:21.630Z,4.70
2022-12-08T14:23:49.944Z,4.83
2022-12-08T14:26:18.082Z,5.50
2022-12-08T14:28:46.130Z,4.60
2022-12-08T14:31:14.719Z,5.30
2022-12-08T14:33:44.562Z,5.10
2022-12-08T14:36:14.726Z,5.30
2022-12-08T14:38:42.871Z,5.33
2022-12-08T14:41:11.224Z,5.40
2022-12-08T14:43:40.959Z,5.60
2022-12-08T14:46:20.760Z,5.10
2022-12-08T14:48:50.261Z,5.70
2022-12-08T14:51:22.774Z,4.97
2022-12-08T14:53:54.549Z,5.20
2022-12-08T14:56:23.838Z,5.20
2022-12-08T14:58:53.002Z,5.30
2022-12-08T15:01:23.571Z,5.03
2022-12-08T15:03:54.807Z,5.10
2022-12-08T15:06:23.486Z,4.83
2022-12-08T15:08:58.618Z,5.57
2022-12-08T15:11:32.658Z,4.93
2022-12-08T15:14:00.733Z,5.43
2022-12-08T15:16:32.025Z,5.40
2022-12-08T15:19:08.804Z,5.90
2022-12-08T15:21:39.998Z,5.10
2022-12-08T15:24:10.503Z,5.70
2022-12-08T15:26:41.790Z,6.37
2022-12-08T15:29:13.751Z,5.50
2022-12-08T15:31:41.808Z,5.00
2022-12-08T15:34:11.379Z,5.50
2022-12-08T15:36:40.159Z,5.17
2022-12-08T15:39:08.268Z,5.07
2022-12-08T15:41:36.509Z,5.00
2022-12-08T15:44:15.325Z,5.43
2022-12-08T15:46:43.446Z,4.70
2022-12-08T15:49:17.161Z,4.50
2022-12-08T15:51:45.224Z,5.27
2022-12-08T15:54:13.298Z,5.00
2022-12-08T15:57:10.587Z,4.60
2022-12-08T15:59:34.321Z,4.90
2022-12-08T16:02:02.466Z,5.03
2022-12-08T16:07:22.656Z,4.90
2022-12-08T16:09:51.023Z,4.60
2022-12-08T16:18:16.590Z,4.73
2022-12-08T16:23:42.971Z,4.83
2022-12-08T16:26:24.396Z,4.93
2022-12-08T16:29:01.223Z,5.00
2022-12-08T16:31:29.411Z,4.90
2022-12-08T16:33:57.716Z,5.20
2022-12-08T16:36:27.229Z,4.70
2022-12-08T16:38:55.324Z,4.80
2022-12-08T16:41:40.878Z,4.70
2022-12-08T16:44:09.049Z,4.90
2022-12-08T16:46:37.245Z,5.00
2022-12-08T16:49:05.866Z,5.20
2022-12-08T16:51:35.273Z,5.23
2022-12-08T16:54:03.274Z,4.97
2022-12-08T16:56:33.446Z,4.70
2022-12-08T16:59:01.952Z,4.47
2022-12-08T17:01:30.240Z,4.93
2022-12-08T17:06:47.747Z,5.17
2022-12-08T17:09:15.783Z,5.37
2022-12-08T17:11:44.131Z,5.07
2022-12-08T17:14:12.561Z,5.80
2022-12-08T17:16:40.921Z,5.30
2022-12-08T17:19:09.377Z,5.07
2022-12-08T17:21:42.054Z,5.30
2022-12-08T17:24:11.862Z,5.10
2022-12-08T17:26:41.766Z,5.60
2022-12-08T17:29:09.765Z,4.97
2022-12-08T17:31:38.213Z,5.50
2022-12-08T17:34:09.574Z,4.80
2022-12-08T17:36:37.669Z,5.93
2022-12-08T17:39:05.797Z,5.43
2022-12-08T17:41:35.276Z,6.20
2022-12-08T17:44:03.351Z,5.67
2022-12-08T17:46:32.283Z,5.70
2022-12-08T17:49:02.660Z,5.50
2022-12-08T17:51:30.865Z,5.40
2022-12-08T17:53:58.997Z,6.10
2022-12-08T17:56:27.009Z,5.73
2022-12-08T17:58:56.436Z,5.40
2022-12-08T18:01:24.873Z,5.30
2022-12-08T18:03:53.008Z,5.77
2022-12-08T18:06:21.031Z,5.97
2022-12-08T18:08:49.131Z,5.50
2022-12-08T18:11:23.189Z,6.10
2022-12-08T18:13:51.573Z,5.60
2022-12-08T18:16:22.035Z,6.27
2022-12-08T18:18:50.159Z,5.70
2022-12-08T18:21:23.253Z,6.63
2022-12-08T18:23:51.882Z,6.33
2022-12-08T18:26:20.177Z,6.37
2022-12-08T18:28:48.345Z,6.60
2022-12-08T18:31:18.097Z,5.97
2022-12-08T18:33:48.004Z,6.90
2022-12-08T18:36:17.392Z,6.13
2022-12-08T18:38:45.437Z,5.70
2022-12-08T18:41:14.452Z,6.10
2022-12-08T18:43:42.674Z,5.70
2022-12-08T18:46:11.692Z,6.23
2022-12-08T18:48:42.207Z,6.33
2022-12-08T18:51:12.555Z,7.13
2022-12-08T18:53:40.796Z,7.20
2022-12-08T18:56:09.165Z,6.67
2022-12-08T18:58:37.674Z,5.87
2022-12-08T19:01:05.961Z,7.00
2022-12-08T19:03:34.169Z,6.83
2022-12-08T19:06:06.157Z,7.07
2022-12-08T19:08:35.880Z,6.30
2022-12-08T19:11:03.939Z,7.00
2022-12-08T19:13:32.196Z,6.63
2022-12-08T19:16:03.498Z,6.70
2022-12-08T19:18:31.663Z,6.77
2022-12-08T19:20:59.750Z,6.97
2022-12-08T19:23:29.128Z,6.67
2022-12-08T19:25:58.503Z,7.13
2022-12-08T19:28:26.601Z,6.83
2022-12-08T19:30:54.712Z,6.60
2022-12-08T19:33:22.870Z,6.67
2022-12-08T19:35:52.927Z,7.07
2022-12-08T19:38:21.163Z,6.70
2022-12-08T19:41:06.803Z,7.00
2022-12-08T19:43:53.754Z,6.60
2022-12-08T19:46:22.028Z,7.20
2022-12-08T19:48:50.216Z,7.70
2022-12-08T19:51:18.254Z,7.70
2022-12-08T19:53:47.955Z,8.00
2022-12-08T19:56:16.376Z,7.67
2022-12-08T19:58:45.865Z,6.90
2022-12-08T20:01:13.950Z,7.13
2022-12-08T20:03:42.093Z,7.37
2022-12-08T20:06:16.063Z,6.83
2022-12-08T20:08:50.243Z,7.83
2022-12-08T20:11:18.708Z,7.13
2022-12-08T20:13:48.539Z,7.57
2022-12-08T20:16:17.082Z,8.13
2022-12-08T20:18:47.721Z,7.07
2022-12-08T20:21:15.937Z,7.17
2022-12-08T20:23:45.476Z,7.37
2022-12-08T20:26:15.872Z,7.57
2022-12-08T20:28:43.942Z,7.70
2022-12-08T20:31:19.938Z,7.00
2022-12-08T20:33:48.138Z,7.00
2022-12-08T20:36:20.478Z,7.47
2022-12-08T20:38:49.052Z,6.93
2022-12-08T20:41:17.179Z,7.27
2022-12-08T20:43:45.308Z,7.47
2022-12-08T20:46:14.718Z,7.70
2022-12-08T20:48:44.252Z,7.60
2022-12-08T20:51:15.923Z,7.63
2022-12-08T20:53:44.106Z,7.63
2022-12-08T20:56:16.209Z,7.47
2022-12-08T20:58:44.326Z,8.30
2022-12-08T21:01:12.965Z,8.13
2022-12-08T21:03:41.501Z,8.37
2022-12-08T21:06:11.247Z,7.20
2022-12-08T21:08:39.440Z,8.43
2022-12-08T21:11:07.745Z,8.63
2022-12-08T21:13:35.813Z,8.10
2022-12-08T21:16:03.996Z,7.43
2022-12-08T21:18:35.964Z,7.60
2022-12-08T21:21:08.586Z,7.83
2022-12-08T21:23:38.425Z,7.37
2022-12-08T21:26:11.420Z,7.77
2022-12-08T21:28:40.083Z,7.60
2022-12-08T21:31:09.154Z,8.47
2022-12-08T21:33:37.539Z,8.37
2022-12-08T21:36:08.209Z,7.80
2022-12-08T21:38:37.903Z,7.90
2022-12-08T21:41:07.553Z,7.53
2022-12-08T21:43:35.779Z,7.50
2022-12-08T21:46:03.953Z,7.60
2022-12-08T21:48:32.022Z,7.40
2022-12-08T21:51:05.020Z,7.80
2022-12-08T21:53:33.595Z,7.43
2022-12-08T21:56:03.119Z,8.10
2022-12-08T21:58:32.672Z,7.57
2022-12-08T22:01:07.469Z,7.80
2022-12-08T22:03:35.825Z,7.70
2022-12-08T22:06:06.416Z,7.93
2022-12-08T22:08:34.528Z,7.90
2022-12-08T22:11:04.560Z,7.20
2022-12-08T22:13:34.281Z,7.70
2022-12-08T22:16:03.147Z,7.10
2022-12-08T22:18:31.367Z,7.50
2022-12-08T22:20:59.509Z,8.00
2022-12-08T22:23:27.716Z,9.00
2022-12-08T22:25:59.294Z,8.10
2022-12-08T22:28:29.177Z,8.07
2022-12-08T22:30:57.457Z,7.70
2022-12-08T22:33:26.211Z,8.30
2022-12-08T22:35:58.115Z,7.77
2022-12-08T22:38:26.543Z,7.33
2022-12-08T22:40:54.870Z,7.23
2022-12-08T22:43:23.246Z,7.83
2022-12-08T22:45:52.817Z,7.60
2022-12-08T22:48:21.113Z,7.53
2022-12-08T22:50:49.872Z,7.77
2022-12-08T22:53:18.046Z,7.73
2022-12-08T22:55:46.698Z,7.30
2022-12-08T22:58:15.036Z,7.17
2022-12-08T23:00:43.272Z,7.03
2022-12-08T23:03:12.990Z,7.30
2022-12-08T23:05:41.286Z,7.10
2022-12-08T23:08:10.578Z,7.50
2022-12-08T23:10:39.025Z,7.57
2022-12-08T23:13:07.321Z,7.10
2022-12-08T23:15:35.595Z,7.67
2022-12-08T23:18:03.778Z,7.80
2022-12-08T23:20:33.392Z,6.93
2022-12-08T23:23:01.453Z,8.13
2022-12-08T23:25:29.510Z,7.53
2022-12-08T23:27:57.595Z,7.83
2022-12-08T23:30:25.669Z,7.77
2022-12-08T23:32:55.854Z,6.77
2022-12-08T23:35:24.317Z,7.33
2022-12-08T23:37:53.817Z,7.20
2022-12-08T23:40:22.065Z,7.67
2022-12-08T23:42:50.123Z,6.70
2022-12-08T23:45:18.373Z,7.50
2022-12-08T23:47:46.746Z,7.80
2022-12-08T23:50:14.946Z,7.10
2022-12-08T23:52:43.056Z,6.80
2022-12-08T23:55:27.611Z,7.50
2022-12-08T23:57:55.676Z,6.90
